Time;durP1;ratioP1;P1;durP2;ratioP2;P2;SDS_P1;SDS_P2;PMS_P1;PMS_P2;Temp;Humidity;BMP_temperature;BMP_pressure;BME280_temperature;BME280_humidity;BME280_pressure;Samples;Min_cycle;Max_cycle;Signal;HPM_P1;HPM_P2
2022/01/17 00:01:18;;;;;;;45.47;39.58;;;;;;;;;;5000482;28;20220;-86
2022/01/17 00:03:45;;;;;;;42.90;38.17;;;;;;;;;;4998649;28;20278;-84
2022/01/17 00:06:13;;;;;;;44.05;38.25;;;;;;;;;;4995693;28;20196;-84
2022/01/17 00:08:43;;;;;;;50.80;40.30;;;;;;;;;;5011055;28;20233;-84
2022/01/17 00:11:14;;;;;;;47.85;39.75;;;;;;;;;;5029590;28;20227;-84
2022/01/17 00:13:42;;;;;;;44.22;36.42;;;;;;;;;;5027747;28;20196;-84
2022/01/17 00:16:13;;;;;;;47.72;40.08;;;;;;;;;;5048287;23;20235;-86
2022/01/17 00:21:22;;;;;;;41.33;37.03;;;;;;;;;;5038582;28;20659;-86
2022/01/17 00:23:50;;;;;;;36.08;32.60;;;;;;;;;;5041728;28;20669;-85
2022/01/17 00:26:19;;;;;;;35.10;31.75;;;;;;;;;;5043986;28;20207;-86
2022/01/17 00:28:47;;;;;;;40.15;35.65;;;;;;;;;;5037228;28;20207;-85
2022/01/17 00:31:14;;;;;;;42.05;35.75;;;;;;;;;;5037854;28;20191;-85
2022/01/17 00:33:41;;;;;;;43.65;35.70;;;;;;;;;;5037296;28;20187;-86
2022/01/17 00:36:09;;;;;;;37.72;33.50;;;;;;;;;;5036678;28;20187;-86
2022/01/17 00:38:36;;;;;;;44.67;35.78;;;;;;;;;;5040745;28;20215;-86
2022/01/17 00:41:04;;;;;;;33.05;29.80;;;;;;;;;;5037017;28;20192;-86
2022/01/17 00:43:35;;;;;;;35.47;31.85;;;;;;;;;;5037186;28;20191;-86
2022/01/17 00:46:03;;;;;;;35.25;31.58;;;;;;;;;;5037885;28;20228;-86
2022/01/17 00:48:30;;;;;;;31.88;28.60;;;;;;;;;;5022412;28;20235;-86
2022/01/17 00:50:58;;;;;;;31.33;28.20;;;;;;;;;;5037925;28;20259;-86
2022/01/17 00:53:25;;;;;;;32.28;29.05;;;;;;;;;;5041285;28;20188;-87
2022/01/17 00:55:53;;;;;;;33.00;29.50;;;;;;;;;;5037902;28;20186;-87
2022/01/17 00:58:21;;;;;;;31.98;28.83;;;;;;;;;;5037992;28;20214;-86
2022/01/17 01:00:53;;;;;;;33.15;29.80;;;;;;;;;;5024548;28;20212;-86
2022/01/17 01:03:21;;;;;;;31.38;28.08;;;;;;;;;;5040409;28;20695;-86
2022/01/17 01:05:48;;;;;;;27.90;25.23;;;;;;;;;;5036568;28;20197;-86
2022/01/17 01:08:16;;;;;;;31.20;28.20;;;;;;;;;;5035828;28;20230;-85
2022/01/17 01:10:43;;;;;;;32.15;28.58;;;;;;;;;;5036487;28;20203;-86
2022/01/17 01:13:11;;;;;;;30.45;27.15;;;;;;;;;;5035650;28;20564;-86
2022/01/17 01:16:08;;;;;;;25.88;23.75;;;;;;;;;;5017305;28;20232;-86
2022/01/17 01:19:07;;;;;;;25.35;23.02;;;;;;;;;;5040733;28;20237;-86
2022/01/17 01:21:48;;;;;;;23.85;22.13;;;;;;;;;;5025368;28;20607;-86
2022/01/17 01:29:49;;;;;;;23.05;21.25;;;;;;;;;;5042061;28;20197;-87
2022/01/17 01:32:23;;;;;;;23.17;21.48;;;;;;;;;;5041809;28;20217;-86
2022/01/17 01:34:57;;;;;;;23.05;21.15;;;;;;;;;;5041709;28;20559;-86
2022/01/17 01:37:26;;;;;;;23.58;21.77;;;;;;;;;;5041332;28;20210;-86
2022/01/17 01:39:54;;;;;;;21.55;19.98;;;;;;;;;;5039084;28;20650;-87
2022/01/17 01:42:25;;;;;;;20.85;19.30;;;;;;;;;;5038986;28;20191;-87
2022/01/17 01:44:54;;;;;;;21.17;19.90;;;;;;;;;;5039810;28;20194;-87
2022/01/17 01:47:23;;;;;;;19.63;18.52;;;;;;;;;;5038321;28;20218;-87
2022/01/17 01:49:53;;;;;;;20.08;18.65;;;;;;;;;;5038931;28;20215;-86
2022/01/17 01:52:23;;;;;;;20.20;18.45;;;;;;;;;;5039159;28;20192;-87
2022/01/17 01:54:50;;;;;;;21.33;19.50;;;;;;;;;;5038466;28;20204;-87
2022/01/17 01:57:18;;;;;;;19.90;18.65;;;;;;;;;;5039385;28;20218;-86
2022/01/17 01:59:46;;;;;;;20.10;18.77;;;;;;;;;;5038310;28;20222;-87
2022/01/17 02:02:16;;;;;;;22.80;21.10;;;;;;;;;;5038415;28;20204;-86
2022/01/17 02:04:45;;;;;;;19.40;18.15;;;;;;;;;;5039519;28;20287;-87
2022/01/17 02:07:15;;;;;;;21.23;19.52;;;;;;;;;;5041857;28;20226;-86
2022/01/17 02:09:43;;;;;;;19.40;17.95;;;;;;;;;;5041608;28;20198;-87
2022/01/17 02:12:11;;;;;;;20.65;19.13;;;;;;;;;;5037718;28;20253;-86
2022/01/17 02:14:38;;;;;;;18.70;17.40;;;;;;;;;;5036891;28;20250;-87
2022/01/17 02:17:06;;;;;;;18.25;17.25;;;;;;;;;;5036668;28;20238;-85
2022/01/17 02:19:44;;;;;;;19.25;17.90;;;;;;;;;;5019246;28;20593;-85
2022/01/17 02:22:13;;;;;;;20.38;18.58;;;;;;;;;;5037268;28;20196;-84
2022/01/17 02:24:40;;;;;;;20.00;18.30;;;;;;;;;;5037291;28;20200;-84
2022/01/17 02:27:08;;;;;;;18.70;17.60;;;;;;;;;;5037441;28;20195;-84
2022/01/17 02:29:35;;;;;;;18.27;17.27;;;;;;;;;;5037494;28;20192;-84
2022/01/17 02:32:02;;;;;;;19.45;17.92;;;;;;;;;;5036592;28;20188;-84
2022/01/17 02:34:30;;;;;;;18.17;17.00;;;;;;;;;;5036571;28;20191;-83
2022/01/17 02:36:57;;;;;;;17.90;16.77;;;;;;;;;;5037461;28;20684;-84
2022/01/17 02:39:26;;;;;;;18.08;17.00;;;;;;;;;;5021438;28;20471;-87
2022/01/17 02:41:53;;;;;;;18.15;16.83;;;;;;;;;;5036898;28;20711;-87
2022/01/17 02:44:21;;;;;;;18.17;17.23;;;;;;;;;;5037285;28;20211;-86
2022/01/17 02:46:48;;;;;;;19.77;17.88;;;;;;;;;;5019178;28;20620;-84
2022/01/17 02:49:15;;;;;;;18.77;17.48;;;;;;;;;;5037523;28;20636;-84
2022/01/17 02:51:47;;;;;;;18.63;17.58;;;;;;;;;;5036796;28;20260;-84
2022/01/17 02:54:14;;;;;;;20.40;18.55;;;;;;;;;;5036898;28;20191;-84
2022/01/17 02:56:43;;;;;;;19.25;18.08;;;;;;;;;;5036820;28;20246;-84
2022/01/17 02:59:11;;;;;;;18.98;17.80;;;;;;;;;;5036973;28;20225;-84
2022/01/17 03:01:38;;;;;;;19.70;18.38;;;;;;;;;;5036339;28;20190;-85
2022/01/17 03:04:06;;;;;;;18.88;17.65;;;;;;;;;;5038367;28;20552;-84
2022/01/17 03:06:33;;;;;;;19.42;18.38;;;;;;;;;;5021916;28;20207;-84
2022/01/17 03:09:01;;;;;;;18.10;17.10;;;;;;;;;;5040863;28;20245;-86
2022/01/17 03:11:29;;;;;;;18.38;17.45;;;;;;;;;;5040722;28;20203;-86
2022/01/17 03:13:58;;;;;;;18.88;17.48;;;;;;;;;;5042631;28;20214;-85
2022/01/17 03:16:32;;;;;;;19.25;17.88;;;;;;;;;;5044139;28;20234;-84
2022/01/17 03:18:59;;;;;;;18.35;17.25;;;;;;;;;;5042884;28;20223;-84
2022/01/17 03:21:28;;;;;;;18.73;17.13;;;;;;;;;;5037287;28;20638;-84
2022/01/17 03:23:56;;;;;;;18.30;17.10;;;;;;;;;;5018763;28;20628;-84
2022/01/17 03:26:23;;;;;;;19.50;18.40;;;;;;;;;;5036477;28;20191;-84
2022/01/17 03:28:51;;;;;;;19.48;17.95;;;;;;;;;;5036326;28;20237;-84
2022/01/17 03:31:19;;;;;;;18.27;17.10;;;;;;;;;;5046099;28;20190;-84
2022/01/17 03:33:47;;;;;;;19.55;17.70;;;;;;;;;;5045144;28;20200;-84
2022/01/17 03:36:14;;;;;;;17.75;16.75;;;;;;;;;;5040071;28;20198;-84
2022/01/17 03:38:42;;;;;;;19.25;17.75;;;;;;;;;;5036951;28;20252;-84
2022/01/17 03:41:13;;;;;;;19.23;17.98;;;;;;;;;;5037659;28;20192;-86
2022/01/17 03:43:40;;;;;;;18.00;16.90;;;;;;;;;;5036280;28;20195;-86
2022/01/17 03:46:07;;;;;;;19.15;17.85;;;;;;;;;;5035635;28;20214;-86
2022/01/17 03:48:36;;;;;;;20.83;18.58;;;;;;;;;;5035840;28;20215;-86
2022/01/17 03:51:04;;;;;;;18.80;17.25;;;;;;;;;;5036561;28;20223;-86
2022/01/17 03:53:31;;;;;;;19.90;17.73;;;;;;;;;;5036875;28;20258;-86
2022/01/17 03:55:59;;;;;;;19.20;18.00;;;;;;;;;;5036346;28;20195;-86
2022/01/17 03:58:27;;;;;;;19.88;18.45;;;;;;;;;;5035939;28;20195;-88
2022/01/17 04:00:56;;;;;;;19.35;18.25;;;;;;;;;;5018676;28;20280;-87
2022/01/17 04:03:24;;;;;;;20.63;18.55;;;;;;;;;;5036144;28;20641;-86
2022/01/17 04:05:53;;;;;;;19.00;17.73;;;;;;;;;;5037054;28;20241;-87
2022/01/17 04:08:21;;;;;;;19.60;18.30;;;;;;;;;;5035896;28;20222;-87
2022/01/17 04:10:48;;;;;;;19.77;18.10;;;;;;;;;;5035610;28;20262;-86
2022/01/17 04:13:15;;;;;;;20.02;18.25;;;;;;;;;;5038983;28;20202;-86
2022/01/17 04:15:43;;;;;;;20.92;19.20;;;;;;;;;;5035584;28;20254;-87
2022/01/17 04:18:11;;;;;;;20.45;18.58;;;;;;;;;;5036296;28;20237;-86
2022/01/17 04:20:39;;;;;;;18.83;17.50;;;;;;;;;;5036875;28;20233;-87
2022/01/17 04:23:09;;;;;;;19.83;18.30;;;;;;;;;;5036685;28;20202;-86
2022/01/17 04:25:37;;;;;;;19.05;17.67;;;;;;;;;;5037035;28;20192;-86
2022/01/17 04:28:05;;;;;;;19.63;17.77;;;;;;;;;;5036274;28;20207;-87
2022/01/17 04:30:33;;;;;;;18.80;17.55;;;;;;;;;;5036225;28;20207;-86
2022/01/17 04:33:00;;;;;;;19.30;17.73;;;;;;;;;;5039534;28;20250;-87
2022/01/17 04:35:29;;;;;;;19.98;18.38;;;;;;;;;;5029644;28;20187;-87
2022/01/17 04:37:57;;;;;;;19.00;17.77;;;;;;;;;;5036611;28;20648;-86
2022/01/17 04:40:26;;;;;;;18.15;17.20;;;;;;;;;;5040057;28;20221;-86
2022/01/17 04:42:56;;;;;;;18.40;17.20;;;;;;;;;;5034923;28;20579;-87
2022/01/17 04:45:23;;;;;;;18.95;17.13;;;;;;;;;;5034414;28;20215;-87
2022/01/17 04:47:53;;;;;;;19.20;17.65;;;;;;;;;;5034726;28;20244;-86
2022/01/17 04:50:21;;;;;;;20.10;18.70;;;;;;;;;;5034429;28;20191;-87
2022/01/17 04:52:49;;;;;;;19.38;18.23;;;;;;;;;;5034892;28;20200;-87
2022/01/17 04:55:17;;;;;;;18.63;17.38;;;;;;;;;;5034382;28;20195;-86
2022/01/17 04:57:46;;;;;;;19.75;17.95;;;;;;;;;;5035153;28;20225;-86
2022/01/17 05:00:15;;;;;;;20.92;19.05;;;;;;;;;;5035799;28;20215;-87
2022/01/17 05:02:43;;;;;;;19.30;17.95;;;;;;;;;;5035912;28;20203;-87
2022/01/17 05:05:10;;;;;;;18.85;17.75;;;;;;;;;;5034191;28;20302;-87
2022/01/17 05:07:38;;;;;;;19.60;18.05;;;;;;;;;;5034307;28;20231;-87
2022/01/17 05:10:07;;;;;;;20.00;18.67;;;;;;;;;;5034397;28;20282;-87
2022/01/17 05:12:35;;;;;;;20.27;18.50;;;;;;;;;;5034163;28;20252;-87
2022/01/17 05:15:05;;;;;;;20.05;18.75;;;;;;;;;;5033892;28;20294;-87
2022/01/17 05:20:19;;;;;;;20.15;18.60;;;;;;;;;;5001276;28;20303;-86
2022/01/17 05:22:47;;;;;;;20.92;19.13;;;;;;;;;;5041351;28;20192;-87
2022/01/17 05:25:14;;;;;;;19.35;18.00;;;;;;;;;;5035574;28;20617;-87
2022/01/17 05:27:42;;;;;;;22.05;19.77;;;;;;;;;;5041153;28;20175;-87
2022/01/17 05:30:13;;;;;;;20.13;18.83;;;;;;;;;;5020316;28;20198;-88
2022/01/17 05:32:40;;;;;;;21.05;19.05;;;;;;;;;;5037905;28;20217;-87
2022/01/17 05:35:08;;;;;;;19.88;18.45;;;;;;;;;;5035339;28;20199;-87
2022/01/17 05:37:35;;;;;;;21.55;18.90;;;;;;;;;;5033786;28;20672;-87
2022/01/17 05:40:03;;;;;;;20.33;18.48;;;;;;;;;;5035769;28;20214;-87
2022/01/17 05:42:30;;;;;;;20.90;18.75;;;;;;;;;;5039690;28;20197;-87
2022/01/17 05:44:57;;;;;;;19.83;18.42;;;;;;;;;;5044277;28;20199;-87
2022/01/17 05:47:26;;;;;;;20.85;19.08;;;;;;;;;;5039414;28;20273;-86
2022/01/17 05:49:53;;;;;;;20.38;18.30;;;;;;;;;;5038536;28;20217;-87
2022/01/17 05:52:21;;;;;;;23.92;18.67;;;;;;;;;;5037772;28;20261;-87
2022/01/17 05:54:48;;;;;;;19.92;18.55;;;;;;;;;;5020423;28;20187;-87
2022/01/17 05:57:17;;;;;;;19.63;17.83;;;;;;;;;;5037886;28;20199;-87
2022/01/17 05:59:45;;;;;;;19.95;18.55;;;;;;;;;;5037602;28;20323;-87
2022/01/17 06:02:12;;;;;;;19.58;18.13;;;;;;;;;;5037388;28;20203;-87
2022/01/17 06:04:41;;;;;;;20.98;19.13;;;;;;;;;;5036936;28;20683;-87
2022/01/17 06:07:08;;;;;;;20.20;18.60;;;;;;;;;;5037202;28;20305;-86
2022/01/17 06:09:36;;;;;;;23.00;18.65;;;;;;;;;;5037885;28;20240;-87
2022/01/17 06:12:04;;;;;;;19.33;18.13;;;;;;;;;;5039387;28;20191;-87
2022/01/17 06:35:04;;;;;;;20.17;18.58;;;;;;;;;;4996989;28;20201;-87
2022/01/17 06:47:16;;;;;;;19.88;18.55;;;;;;;;;;6038628;23;20187;-87
2022/01/17 07:20:01;;;;;;;20.48;18.95;;;;;;;;;;5189041;23;20262;-85
2022/01/17 07:25:51;;;;;;;21.95;19.95;;;;;;;;;;4972897;28;20198;-85
2022/01/17 07:28:23;;;;;;;21.75;19.67;;;;;;;;;;4974262;29;20208;-86
2022/01/17 07:30:51;;;;;;;21.17;19.35;;;;;;;;;;4973684;29;20230;-85
2022/01/17 07:34:17;;;;;;;21.45;19.40;;;;;;;;;;4976047;29;20321;-86
2022/01/17 08:07:19;;;;;;;20.70;19.23;;;;;;;;;;6050791;23;20226;-91
2022/01/17 08:56:27;;;;;;;24.77;22.60;;;;;;;;;;5396250;23;20238;-91
2022/01/17 09:10:37;;;;;;;27.58;25.25;;;;;;;;;;5331424;23;20250;-91
2022/01/17 11:53:33;;;;;;;37.55;34.05;;;;;;;;;;5013661;28;20196;-83
2022/01/17 11:59:44;;;;;;;29.42;26.73;;;;;;;;;;5013932;28;20200;-83
2022/01/17 12:14:57;;;;;;;32.60;29.35;;;;;;;;;;5011448;28;20204;-82
2022/01/17 12:20:53;;;;;;;30.50;27.40;;;;;;;;;;5003456;28;20223;-82
2022/01/17 12:23:51;;;;;;;31.55;28.20;;;;;;;;;;4996696;28;20209;-82
2022/01/17 12:26:34;;;;;;;30.10;26.63;;;;;;;;;;5015325;28;20551;-82
2022/01/17 12:35:36;;;;;;;30.47;26.80;;;;;;;;;;5006353;28;20205;-83
2022/01/17 12:40:59;;;;;;;28.73;26.40;;;;;;;;;;5014090;28;20298;-84
2022/01/17 12:43:43;;;;;;;32.30;28.30;;;;;;;;;;5014337;28;20240;-83
2022/01/17 12:46:33;;;;;;;34.95;27.50;;;;;;;;;;5016649;28;20224;-83
2022/01/17 12:49:30;;;;;;;29.17;25.90;;;;;;;;;;5015756;28;20237;-83
2022/01/17 12:52:29;;;;;;;28.88;26.17;;;;;;;;;;5017030;28;20423;-84
2022/01/17 13:33:11;;;;;;;36.80;25.83;;;;;;;;;;4975248;28;20237;-82
2022/01/17 13:58:55;;;;;;;27.27;24.38;;;;;;;;;;4917119;29;20200;-82
2022/01/17 14:07:50;;;;;;;36.50;24.58;;;;;;;;;;4978316;29;20203;-82
2022/01/17 14:10:37;;;;;;;29.00;23.70;;;;;;;;;;4976159;28;20483;-83
2022/01/17 14:16:20;;;;;;;37.65;24.60;;;;;;;;;;4921608;29;20201;-82
2022/01/17 14:18:50;;;;;;;39.70;26.05;;;;;;;;;;4921698;29;20196;-83
2022/01/17 14:21:55;;;;;;;26.70;24.03;;;;;;;;;;4922020;29;20255;-82
2022/01/17 14:49:56;;;;;;;38.13;25.55;;;;;;;;;;6135626;22;1812065;-82
2022/01/17 14:52:24;;;;;;;30.20;23.25;;;;;;;;;;6179171;23;20204;-83
2022/01/17 14:55:21;;;;;;;26.63;23.15;;;;;;;;;;6204940;23;20167;-83
2022/01/17 15:00:38;;;;;;;24.40;21.80;;;;;;;;;;6205025;23;20384;-87
2022/01/17 15:03:10;;;;;;;30.58;22.25;;;;;;;;;;6204970;23;20172;-84
2022/01/17 15:05:40;;;;;;;28.87;23.70;;;;;;;;;;6180815;23;20373;-91
2022/01/17 15:08:11;;;;;;;26.35;22.98;;;;;;;;;;6205568;23;20382;-86
2022/01/17 15:10:39;;;;;;;29.55;24.17;;;;;;;;;;6202277;23;20171;-89
2022/01/17 15:13:08;;;;;;;41.45;25.67;;;;;;;;;;6202908;23;20637;-89
2022/01/17 15:15:36;;;;;;;28.88;22.50;;;;;;;;;;6179864;23;20526;-88
2022/01/17 15:18:06;;;;;;;28.73;22.13;;;;;;;;;;6206167;23;20163;-90
2022/01/17 15:20:34;;;;;;;30.20;21.30;;;;;;;;;;6207476;23;20487;-82
2022/01/17 15:23:03;;;;;;;31.83;22.25;;;;;;;;;;6208215;23;20211;-81
2022/01/17 15:25:31;;;;;;;29.75;22.75;;;;;;;;;;6207119;23;20164;-87
2022/01/17 15:27:58;;;;;;;22.98;20.52;;;;;;;;;;6205301;23;20171;-83
2022/01/17 15:30:31;;;;;;;30.45;22.23;;;;;;;;;;6205372;23;20189;-84
2022/01/17 15:32:59;;;;;;;29.70;21.55;;;;;;;;;;6206408;23;20196;-82
2022/01/17 15:35:28;;;;;;;24.83;21.48;;;;;;;;;;6202900;23;20611;-82
2022/01/17 15:37:56;;;;;;;25.83;22.73;;;;;;;;;;6204552;23;20192;-87
2022/01/17 15:40:27;;;;;;;24.67;22.17;;;;;;;;;;6207977;23;20381;-88
2022/01/17 15:42:55;;;;;;;30.50;21.07;;;;;;;;;;6205705;23;20388;-87
2022/01/17 15:45:23;;;;;;;30.42;23.17;;;;;;;;;;6196217;23;20389;-89
2022/01/17 15:47:51;;;;;;;22.13;19.77;;;;;;;;;;6192690;23;20183;-90
2022/01/17 15:50:18;;;;;;;24.50;21.80;;;;;;;;;;6192618;23;20498;-87
2022/01/17 15:52:46;;;;;;;27.55;21.15;;;;;;;;;;6192069;23;20429;-89
2022/01/17 15:55:17;;;;;;;22.92;20.80;;;;;;;;;;6193232;23;20231;-85
2022/01/17 15:57:52;;;;;;;22.50;20.30;;;;;;;;;;6204175;23;20227;-85
2022/01/17 16:00:23;;;;;;;22.23;20.20;;;;;;;;;;6199652;23;20179;-85
2022/01/17 16:02:50;;;;;;;32.83;21.98;;;;;;;;;;6210156;23;20986;-86
2022/01/17 16:05:21;;;;;;;23.73;20.83;;;;;;;;;;6206877;23;20196;-89
2022/01/17 16:07:52;;;;;;;22.85;20.63;;;;;;;;;;6205366;23;20179;-81
2022/01/17 16:10:22;;;;;;;23.90;19.90;;;;;;;;;;6193672;23;20186;-80
2022/01/17 16:12:51;;;;;;;20.90;18.77;;;;;;;;;;6197607;23;20425;-80
2022/01/17 16:15:21;;;;;;;23.33;20.15;;;;;;;;;;6195820;23;20175;-80
2022/01/17 16:17:49;;;;;;;22.60;20.40;;;;;;;;;;6197381;23;20198;-80
2022/01/17 16:20:16;;;;;;;22.48;19.92;;;;;;;;;;6192186;23;20404;-79
2022/01/17 16:22:45;;;;;;;21.38;19.48;;;;;;;;;;6193466;23;20164;-80
2022/01/17 16:25:13;;;;;;;31.50;20.00;;;;;;;;;;6193633;23;20165;-81
2022/01/17 16:27:40;;;;;;;20.20;18.27;;;;;;;;;;6193042;23;20429;-80
2022/01/17 16:30:11;;;;;;;21.07;19.00;;;;;;;;;;6191432;23;20379;-79
2022/01/17 16:32:39;;;;;;;21.70;19.97;;;;;;;;;;6191044;23;20439;-79
2022/01/17 16:35:06;;;;;;;20.27;18.45;;;;;;;;;;6200990;23;20371;-79
2022/01/17 16:37:34;;;;;;;21.08;19.10;;;;;;;;;;6191524;23;20196;-81
2022/01/17 16:40:02;;;;;;;20.77;18.77;;;;;;;;;;6193487;23;20172;-78
2022/01/17 16:42:34;;;;;;;21.35;19.20;;;;;;;;;;6190256;23;20455;-81
2022/01/17 16:45:02;;;;;;;21.45;19.83;;;;;;;;;;6195140;23;20200;-79
2022/01/17 16:47:31;;;;;;;26.37;19.57;;;;;;;;;;6195718;23;20176;-79
2022/01/17 16:49:58;;;;;;;21.70;19.80;;;;;;;;;;6196047;23;20414;-78
2022/01/17 16:52:26;;;;;;;26.08;20.08;;;;;;;;;;6194996;23;20400;-79
2022/01/17 16:54:53;;;;;;;20.55;18.70;;;;;;;;;;6194160;23;20161;-79
2022/01/17 16:57:21;;;;;;;24.65;20.25;;;;;;;;;;6197033;23;20172;-80
2022/01/17 16:59:49;;;;;;;21.05;19.35;;;;;;;;;;6195253;23;20184;-80
2022/01/17 17:02:22;;;;;;;20.75;18.83;;;;;;;;;;6195795;23;20616;-79
2022/01/17 17:04:53;;;;;;;26.65;19.65;;;;;;;;;;6173393;23;20177;-79
2022/01/17 17:07:22;;;;;;;22.05;19.77;;;;;;;;;;6220792;23;20211;-79
2022/01/17 17:09:54;;;;;;;20.85;19.05;;;;;;;;;;6229195;23;20176;-80
2022/01/17 17:12:35;;;;;;;20.23;18.45;;;;;;;;;;6234171;23;20171;-77
2022/01/17 17:15:04;;;;;;;22.20;18.77;;;;;;;;;;6221280;23;20182;-80
2022/01/17 17:17:31;;;;;;;22.98;19.20;;;;;;;;;;6225206;23;20625;-78
2022/01/17 17:20:05;;;;;;;20.67;18.95;;;;;;;;;;6224904;23;20161;-79
2022/01/17 17:22:34;;;;;;;21.27;19.27;;;;;;;;;;6222953;23;20171;-77
2022/01/17 17:25:01;;;;;;;20.30;18.77;;;;;;;;;;6222890;23;20239;-80
2022/01/17 17:27:30;;;;;;;22.25;19.73;;;;;;;;;;6220732;23;20469;-79
2022/01/17 17:29:58;;;;;;;22.27;20.37;;;;;;;;;;6220111;23;20174;-79
2022/01/17 17:32:27;;;;;;;20.08;18.55;;;;;;;;;;6218961;23;20490;-79
2022/01/17 17:34:54;;;;;;;21.30;19.40;;;;;;;;;;6219638;23;20168;-78
2022/01/17 17:37:24;;;;;;;23.73;19.77;;;;;;;;;;6217247;23;20434;-78
2022/01/17 17:39:51;;;;;;;21.08;19.50;;;;;;;;;;6218002;23;20482;-79
2022/01/17 17:42:19;;;;;;;20.38;18.92;;;;;;;;;;6217627;23;20161;-79
2022/01/17 17:44:48;;;;;;;20.07;18.57;;;;;;;;;;6218385;23;20172;-78
2022/01/17 17:47:16;;;;;;;20.00;18.80;;;;;;;;;;6216649;23;20406;-79
2022/01/17 17:49:43;;;;;;;20.58;19.10;;;;;;;;;;6215129;23;20632;-79
2022/01/17 17:52:11;;;;;;;21.40;19.87;;;;;;;;;;6215594;23;20173;-79
2022/01/17 17:54:41;;;;;;;22.00;19.95;;;;;;;;;;6215442;23;20892;-78
2022/01/17 17:57:08;;;;;;;22.70;20.55;;;;;;;;;;6214350;23;20230;-80
2022/01/17 17:59:36;;;;;;;21.40;19.80;;;;;;;;;;6215498;23;20175;-79
2022/01/17 18:02:04;;;;;;;22.05;19.75;;;;;;;;;;6215979;23;20518;-79
2022/01/17 18:04:31;;;;;;;22.98;21.02;;;;;;;;;;6214312;23;20179;-79
2022/01/17 18:06:58;;;;;;;21.45;19.50;;;;;;;;;;6214999;23;20207;-79
2022/01/17 18:09:26;;;;;;;22.02;20.30;;;;;;;;;;6215375;23;20167;-82
2022/01/17 18:11:55;;;;;;;20.40;18.95;;;;;;;;;;6216994;23;20175;-79
2022/01/17 18:14:22;;;;;;;21.13;19.35;;;;;;;;;;6214854;23;20196;-79
2022/01/17 18:16:50;;;;;;;19.90;18.35;;;;;;;;;;6214017;23;20167;-79
2022/01/17 18:19:17;;;;;;;20.90;19.08;;;;;;;;;;6219699;23;20167;-80
2022/01/17 18:21:45;;;;;;;19.70;18.25;;;;;;;;;;6221905;23;20225;-82
2022/01/17 18:24:13;;;;;;;21.30;19.35;;;;;;;;;;6214956;23;20182;-79
2022/01/17 18:26:41;;;;;;;21.38;19.60;;;;;;;;;;6220814;23;20489;-81
2022/01/17 18:29:09;;;;;;;21.60;19.55;;;;;;;;;;6220337;23;20168;-80
2022/01/17 18:31:37;;;;;;;21.02;19.50;;;;;;;;;;6220021;23;20992;-80
2022/01/17 18:34:05;;;;;;;20.83;18.93;;;;;;;;;;6216259;23;20246;-80
2022/01/17 18:36:33;;;;;;;21.43;19.23;;;;;;;;;;6215920;23;20776;-79
2022/01/17 18:39:02;;;;;;;20.40;18.47;;;;;;;;;;6225031;23;20422;-74
2022/01/17 18:41:30;;;;;;;20.70;18.87;;;;;;;;;;6216067;23;20869;-79
2022/01/17 18:43:58;;;;;;;26.87;23.03;;;;;;;;;;6188510;23;20386;-80
2022/01/17 18:46:28;;;;;;;20.63;18.83;;;;;;;;;;6216295;23;20387;-80
2022/01/17 18:48:55;;;;;;;20.75;18.98;;;;;;;;;;6215859;23;20410;-79
2022/01/17 18:51:27;;;;;;;25.43;19.57;;;;;;;;;;6215964;23;20167;-79
2022/01/17 18:53:55;;;;;;;21.20;19.23;;;;;;;;;;6220339;23;20450;-79
2022/01/17 18:56:23;;;;;;;21.73;19.70;;;;;;;;;;6215594;23;20533;-79
2022/01/17 18:58:51;;;;;;;21.47;19.20;;;;;;;;;;6216337;23;20394;-79
2022/01/17 19:01:19;;;;;;;21.02;19.23;;;;;;;;;;6216096;23;20734;-79
2022/01/17 19:03:48;;;;;;;20.77;18.83;;;;;;;;;;6215120;23;20181;-79
2022/01/17 19:06:17;;;;;;;21.40;19.08;;;;;;;;;;6217266;23;20220;-80
2022/01/17 19:08:45;;;;;;;22.13;19.98;;;;;;;;;;6218934;23;20167;-79
2022/01/17 19:11:12;;;;;;;20.63;18.95;;;;;;;;;;6217744;23;20610;-80
2022/01/17 19:13:40;;;;;;;19.70;18.30;;;;;;;;;;6218480;23;20191;-80
2022/01/17 19:16:08;;;;;;;21.77;19.88;;;;;;;;;;6216671;23;20371;-80
2022/01/17 19:19:00;;;;;;;21.57;19.63;;;;;;;;;;6218156;23;20167;-79
2022/01/17 19:21:43;;;;;;;20.47;18.77;;;;;;;;;;6218734;23;20426;-77
2022/01/17 19:24:17;;;;;;;21.08;19.17;;;;;;;;;;6214892;23;20414;-77
2022/01/17 19:26:46;;;;;;;21.35;19.55;;;;;;;;;;6188818;23;20224;-78
2022/01/17 19:29:13;;;;;;;22.77;19.30;;;;;;;;;;6215313;23;20179;-79
2022/01/17 19:31:41;;;;;;;20.55;19.05;;;;;;;;;;6215446;23;20761;-78
2022/01/17 19:34:09;;;;;;;21.37;19.70;;;;;;;;;;6215602;23;20191;-78
2022/01/17 19:36:38;;;;;;;21.00;19.33;;;;;;;;;;6215754;23;20402;-77
2022/01/17 19:39:06;;;;;;;22.40;20.10;;;;;;;;;;6214176;23;20185;-78
2022/01/17 19:41:33;;;;;;;21.35;20.02;;;;;;;;;;6214392;23;20170;-78
2022/01/17 19:44:01;;;;;;;22.20;20.25;;;;;;;;;;6214617;23;20171;-78
2022/01/17 19:46:29;;;;;;;22.02;20.05;;;;;;;;;;6215365;23;20167;-79
2022/01/17 19:48:59;;;;;;;22.25;20.05;;;;;;;;;;6215177;23;20172;-78
2022/01/17 19:51:27;;;;;;;20.30;18.85;;;;;;;;;;6214909;23;20167;-78
2022/01/17 19:53:56;;;;;;;21.50;19.85;;;;;;;;;;6214338;23;20197;-78
2022/01/17 19:56:24;;;;;;;22.27;20.17;;;;;;;;;;6213573;23;20630;-78
2022/01/17 19:58:51;;;;;;;22.75;20.85;;;;;;;;;;6214118;23;20489;-78
2022/01/17 20:01:19;;;;;;;22.08;20.25;;;;;;;;;;6214865;23;20167;-78
2022/01/17 20:03:47;;;;;;;23.63;21.55;;;;;;;;;;6213517;23;20175;-78
2022/01/17 20:06:16;;;;;;;21.58;20.05;;;;;;;;;;6214644;23;20168;-79
2022/01/17 20:08:43;;;;;;;22.00;20.20;;;;;;;;;;6184950;23;20500;-78
2022/01/17 20:11:13;;;;;;;21.95;20.35;;;;;;;;;;6185612;23;20161;-77
2022/01/17 20:13:44;;;;;;;23.77;21.65;;;;;;;;;;6186236;23;20187;-78
2022/01/17 20:16:12;;;;;;;24.70;22.47;;;;;;;;;;6185747;23;20246;-78
2022/01/17 20:18:39;;;;;;;21.60;19.95;;;;;;;;;;6185841;23;20411;-78
2022/01/17 20:21:06;;;;;;;23.25;20.90;;;;;;;;;;6185199;23;20167;-79
2022/01/17 20:23:34;;;;;;;22.08;20.48;;;;;;;;;;6186373;23;20188;-78
2022/01/17 20:26:01;;;;;;;22.10;20.42;;;;;;;;;;6185170;23;20165;-79
2022/01/17 20:28:30;;;;;;;21.77;20.27;;;;;;;;;;6184516;23;20180;-78
2022/01/17 20:30:58;;;;;;;23.50;21.27;;;;;;;;;;6184701;23;20165;-78
2022/01/17 20:33:25;;;;;;;22.40;20.85;;;;;;;;;;6184180;23;20374;-79
2022/01/17 20:35:53;;;;;;;22.38;20.20;;;;;;;;;;6183519;23;20511;-78
2022/01/17 20:38:20;;;;;;;22.52;19.85;;;;;;;;;;6183487;23;20164;-79
2022/01/17 20:40:48;;;;;;;21.45;19.85;;;;;;;;;;6183326;23;20161;-78
2022/01/17 20:43:15;;;;;;;21.52;19.85;;;;;;;;;;6183249;23;20178;-79
2022/01/17 20:45:44;;;;;;;21.55;19.55;;;;;;;;;;6183021;23;20180;-78
2022/01/17 20:48:11;;;;;;;21.45;19.20;;;;;;;;;;6183076;23;20172;-78
2022/01/17 20:50:39;;;;;;;21.95;20.05;;;;;;;;;;6182971;23;20178;-78
2022/01/17 20:53:06;;;;;;;20.53;19.10;;;;;;;;;;6182932;23;20168;-78
2022/01/17 20:55:34;;;;;;;20.50;18.90;;;;;;;;;;6182381;23;20891;-78
2022/01/17 20:58:01;;;;;;;21.50;19.33;;;;;;;;;;6183398;23;20886;-79
2022/01/17 21:00:29;;;;;;;21.90;19.77;;;;;;;;;;6184446;23;20406;-80
2022/01/17 21:02:58;;;;;;;27.43;20.27;;;;;;;;;;6186209;23;20367;-80
2022/01/17 21:05:25;;;;;;;21.80;19.70;;;;;;;;;;6188157;23;20419;-80
2022/01/17 21:07:52;;;;;;;20.02;18.52;;;;;;;;;;6227547;23;20268;-79
2022/01/17 21:10:20;;;;;;;22.33;20.48;;;;;;;;;;6250243;23;20167;-80
2022/01/17 21:12:49;;;;;;;22.13;19.90;;;;;;;;;;6247809;23;20166;-85
2022/01/17 21:15:17;;;;;;;20.58;18.92;;;;;;;;;;6247966;23;20214;-83
2022/01/17 21:17:45;;;;;;;21.90;19.70;;;;;;;;;;6247128;23;20171;-83
2022/01/17 21:20:16;;;;;;;22.05;18.83;;;;;;;;;;6249862;23;20757;-83
2022/01/17 21:22:44;;;;;;;20.60;18.87;;;;;;;;;;6254250;23;20166;-83
2022/01/17 21:25:12;;;;;;;19.90;18.67;;;;;;;;;;6246449;23;20376;-84
2022/01/17 21:27:39;;;;;;;23.23;20.92;;;;;;;;;;6246438;23;20221;-84
2022/01/17 21:30:08;;;;;;;20.50;19.00;;;;;;;;;;6246535;23;20166;-83
2022/01/17 21:32:35;;;;;;;20.55;18.95;;;;;;;;;;6258740;22;20178;-82
2022/01/17 21:35:03;;;;;;;22.17;20.10;;;;;;;;;;6259880;22;20207;-83
2022/01/17 21:37:31;;;;;;;21.45;19.65;;;;;;;;;;6233746;23;20168;-82
2022/01/17 21:39:59;;;;;;;21.90;19.88;;;;;;;;;;6260184;23;20226;-83
2022/01/17 21:42:27;;;;;;;23.38;20.25;;;;;;;;;;6264448;23;20174;-83
2022/01/17 21:44:54;;;;;;;22.15;20.25;;;;;;;;;;6268237;23;20166;-83
2022/01/17 21:47:22;;;;;;;19.97;18.63;;;;;;;;;;6264050;23;20155;-83
2022/01/17 21:49:49;;;;;;;21.15;19.55;;;;;;;;;;6256689;23;20386;-83
2022/01/17 21:52:16;;;;;;;20.38;18.98;;;;;;;;;;6251772;23;20173;-82
2022/01/17 21:54:45;;;;;;;21.90;19.27;;;;;;;;;;6250510;23;20803;-83
2022/01/17 21:57:13;;;;;;;20.67;19.15;;;;;;;;;;6250025;23;20171;-82
2022/01/17 21:59:41;;;;;;;19.90;18.40;;;;;;;;;;6266477;23;20199;-82
2022/01/17 22:02:15;;;;;;;20.83;18.88;;;;;;;;;;6249862;23;20159;-83